Lontzen, Belgium
Current Conditions -  °F | °C
As of 11:25 PM on Wednesday 26 Nov 2014 (Local Time) from EBLB Reporting Station
Overcast Overcast  
Wind Chill:   Ceiling: 100
Heat Index:   Visibility: 2mi
Dew Point:   Wind: 2mph
Humidity: 100%   Direction: NA
Pressure: 29.85"   Gusts: NA
Location:  50.68°N, 6.01°E
Report Text: EBLB 262225Z AUTO VRB02KT 3300 OVC001/// 05/05 Q1011 RED
Loading
Personal Weather Stations






























Interactive Weather Map New forecast layout! Learn more

10-Day Weather Forecast

Advertisements
Track Severe Weather on mobile